createdAt,value
2019-02-25T00:01:21.716Z,13.50
2019-02-25T00:03:52.103Z,13.85
2019-02-25T00:06:22.474Z,13.53
2019-02-25T00:08:52.868Z,12.98
2019-02-25T00:11:23.242Z,13.18
2019-02-25T00:13:53.751Z,14.13
2019-02-25T00:16:24.189Z,13.30
2019-02-25T00:18:54.570Z,13.30
2019-02-25T00:21:24.939Z,13.53
2019-02-25T00:23:55.322Z,12.58
2019-02-25T00:26:25.687Z,13.18
2019-02-25T00:28:56.080Z,12.55
2019-02-25T00:31:26.449Z,13.00
2019-02-25T00:33:56.828Z,12.15
2019-02-25T00:36:27.201Z,12.70
2019-02-25T00:38:57.590Z,13.32
2019-02-25T00:41:27.960Z,11.83
2019-02-25T00:43:58.349Z,12.65
2019-02-25T00:46:28.757Z,12.25
2019-02-25T00:48:59.137Z,12.70
2019-02-25T00:51:29.596Z,12.73
2019-02-25T00:53:59.982Z,13.20
2019-02-25T00:56:30.351Z,11.48
2019-02-25T00:59:00.745Z,12.00
2019-02-25T01:01:31.109Z,12.37
2019-02-25T01:04:01.508Z,11.78
2019-02-25T01:06:31.882Z,11.85
2019-02-25T01:09:14.215Z,11.95
2019-02-25T01:11:44.584Z,12.78
2019-02-25T01:14:14.972Z,12.35
2019-02-25T01:16:45.332Z,12.70
2019-02-25T01:19:15.727Z,12.28
2019-02-25T01:21:46.096Z,12.80
2019-02-25T01:24:16.482Z,13.32
2019-02-25T01:26:46.846Z,12.82
2019-02-25T01:29:17.237Z,13.72
2019-02-25T01:31:47.611Z,13.88
2019-02-25T01:34:17.998Z,13.32
2019-02-25T01:36:48.379Z,14.33
2019-02-25T01:39:18.754Z,12.90
2019-02-25T01:41:49.138Z,13.20
2019-02-25T01:44:19.527Z,13.18
2019-02-25T01:46:49.903Z,13.28
2019-02-25T01:49:20.294Z,13.88
2019-02-25T01:51:50.670Z,14.50
2019-02-25T01:54:21.128Z,13.98
2019-02-25T01:56:51.490Z,13.60
2019-02-25T01:59:21.883Z,12.85
2019-02-25T02:01:52.239Z,13.72
2019-02-25T02:04:22.624Z,13.00
2019-02-25T02:06:52.989Z,12.90
2019-02-25T02:09:23.378Z,12.63
2019-02-25T02:11:53.749Z,13.83
2019-02-25T02:14:24.140Z,13.48
2019-02-25T02:16:54.516Z,13.43
2019-02-25T02:19:24.919Z,12.95
2019-02-25T02:21:55.280Z,14.23
2019-02-25T02:24:25.666Z,13.85
2019-02-25T02:26:56.034Z,12.55
2019-02-25T02:29:26.432Z,13.93
2019-02-25T02:31:56.809Z,13.08
2019-02-25T02:34:27.196Z,13.43
2019-02-25T02:36:57.569Z,13.60
2019-02-25T02:39:27.964Z,13.88
2019-02-25T02:42:35.648Z,13.93
2019-02-25T02:45:13.814Z,13.28
2019-02-25T02:47:57.565Z,13.95
2019-02-25T02:50:27.954Z,14.25
2019-02-25T02:52:58.333Z,14.38
2019-02-25T02:55:28.799Z,13.43
2019-02-25T02:57:59.164Z,13.60
2019-02-25T03:00:29.633Z,13.78
2019-02-25T03:03:00.003Z,13.85
2019-02-25T03:05:30.402Z,12.95
2019-02-25T03:08:00.769Z,13.22
2019-02-25T03:10:32.235Z,13.50
2019-02-25T03:13:02.723Z,13.32
2019-02-25T03:15:33.060Z,12.25
2019-02-25T03:18:03.431Z,14.13
2019-02-25T03:20:33.820Z,14.18
2019-02-25T03:23:04.195Z,12.93
2019-02-25T03:25:34.593Z,13.05
2019-02-25T03:28:04.974Z,14.20
2019-02-25T03:30:35.375Z,13.85
2019-02-25T03:33:05.751Z,12.98
2019-02-25T03:35:36.241Z,13.18
2019-02-25T03:38:06.618Z,14.63
2019-02-25T03:40:37.005Z,14.33
2019-02-25T03:43:07.370Z,13.72
2019-02-25T03:45:37.756Z,13.60
2019-02-25T03:48:08.133Z,14.07
2019-02-25T03:50:38.526Z,12.53
2019-02-25T03:53:08.896Z,14.30
2019-02-25T03:55:39.290Z,13.38
2019-02-25T03:58:09.659Z,13.93
2019-02-25T04:00:40.044Z,15.32
2019-02-25T04:03:10.420Z,14.93
2019-02-25T04:05:40.836Z,14.68
2019-02-25T04:08:11.260Z,14.75
2019-02-25T04:10:41.659Z,16.12
2019-02-25T04:13:12.027Z,15.98
2019-02-25T04:15:43.796Z,15.90
2019-02-25T04:18:14.186Z,14.73
2019-02-25T04:20:44.568Z,14.43
2019-02-25T04:23:14.938Z,15.08
2019-02-25T04:25:45.341Z,14.28
2019-02-25T04:28:15.702Z,13.50
2019-02-25T04:30:46.095Z,14.00
2019-02-25T04:33:16.472Z,13.72
2019-02-25T04:35:46.863Z,14.03
2019-02-25T04:38:17.242Z,14.38
2019-02-25T04:40:47.730Z,14.30
2019-02-25T04:43:18.100Z,14.53
2019-02-25T04:45:48.492Z,14.58
2019-02-25T04:48:18.861Z,14.63
2019-02-25T04:50:49.313Z,14.98
2019-02-25T04:53:19.681Z,14.13
2019-02-25T04:55:50.076Z,14.20
2019-02-25T04:58:20.446Z,14.60
2019-02-25T05:00:50.844Z,15.00
2019-02-25T05:03:21.218Z,14.53
2019-02-25T05:05:51.604Z,14.38
2019-02-25T05:08:21.977Z,15.43
2019-02-25T05:10:52.373Z,14.98
2019-02-25T05:13:22.735Z,15.18
2019-02-25T05:15:53.162Z,18.32
2019-02-25T05:18:23.537Z,16.42
2019-02-25T05:20:54.035Z,15.58
2019-02-25T05:23:24.393Z,14.65
2019-02-25T05:25:54.782Z,14.53
2019-02-25T05:28:25.147Z,15.55
2019-02-25T05:30:55.598Z,14.83
2019-02-25T05:33:25.967Z,14.98
2019-02-25T05:35:56.359Z,14.60
2019-02-25T05:38:26.734Z,15.90
2019-02-25T05:40:57.134Z,16.42
2019-02-25T05:43:27.499Z,16.50
2019-02-25T05:45:57.889Z,15.72
2019-02-25T05:48:28.288Z,15.63
2019-02-25T05:50:58.674Z,15.13
2019-02-25T05:53:29.041Z,19.77
2019-02-25T05:55:59.440Z,17.48
2019-02-25T05:58:29.818Z,15.78
2019-02-25T06:01:00.209Z,17.37
2019-02-25T06:03:30.576Z,15.32
2019-02-25T06:06:00.972Z,16.10
2019-02-25T06:08:31.344Z,14.87
2019-02-25T06:11:01.735Z,16.65
2019-02-25T06:13:32.103Z,16.25
2019-02-25T06:16:02.485Z,15.20
2019-02-25T06:18:32.858Z,15.28
2019-02-25T06:21:03.239Z,14.40
2019-02-25T06:23:33.616Z,15.05
2019-02-25T06:26:04.011Z,15.25
2019-02-25T06:28:34.377Z,18.27
2019-02-25T06:31:07.448Z,17.37
2019-02-25T06:33:38.107Z,15.98
2019-02-25T06:36:08.505Z,15.32
2019-02-25T06:38:38.867Z,15.20
2019-02-25T06:41:09.338Z,15.15
2019-02-25T06:43:39.710Z,16.15
2019-02-25T06:46:10.165Z,16.52
2019-02-25T06:48:40.526Z,16.52
2019-02-25T06:51:10.915Z,14.85
2019-02-25T06:53:41.326Z,15.30
2019-02-25T06:56:11.721Z,14.85
2019-02-25T06:58:42.081Z,14.73
2019-02-25T07:01:12.603Z,16.25
2019-02-25T07:03:43.757Z,15.50
2019-02-25T07:06:18.646Z,15.35
2019-02-25T07:08:50.648Z,16.60
2019-02-25T07:11:25.411Z,15.45
2019-02-25T07:13:57.406Z,15.48
2019-02-25T07:16:32.100Z,15.43
2019-02-25T07:19:15.447Z,16.05
2019-02-25T07:21:53.412Z,15.95
2019-02-25T07:24:25.492Z,16.30
2019-02-25T07:27:00.573Z,15.48
2019-02-25T07:29:38.314Z,15.70
2019-02-25T07:32:10.342Z,15.60
2019-02-25T07:34:45.030Z,14.93
2019-02-25T07:37:19.793Z,14.87
2019-02-25T07:39:51.804Z,15.80
2019-02-25T07:42:36.098Z,15.30
2019-02-25T07:45:15.371Z,15.23
2019-02-25T07:47:47.855Z,14.15
2019-02-25T07:50:25.979Z,14.98
2019-02-25T07:53:03.754Z,15.40
2019-02-25T07:55:44.497Z,14.35
2019-02-25T07:58:22.301Z,14.98
2019-02-25T08:00:54.286Z,13.83
2019-02-25T08:03:31.746Z,14.18
2019-02-25T08:06:18.830Z,14.18
2019-02-25T08:08:56.784Z,13.85
2019-02-25T08:14:29.019Z,15.13
2019-02-25T08:17:17.434Z,14.98
2019-02-25T08:19:52.151Z,14.55
2019-02-25T08:22:32.804Z,16.12
2019-02-25T08:25:04.813Z,15.32
2019-02-25T08:27:45.806Z,16.42
2019-02-25T08:30:34.052Z,15.32
2019-02-25T08:33:06.141Z,15.38
2019-02-25T08:36:06.636Z,16.30
2019-02-25T08:38:42.117Z,15.63
2019-02-25T08:41:24.169Z,15.05
2019-02-25T08:43:59.099Z,15.80
2019-02-25T08:46:50.464Z,16.02
2019-02-25T08:49:25.851Z,15.15
2019-02-25T08:51:56.251Z,15.10
2019-02-25T08:54:26.618Z,16.15
2019-02-25T08:56:57.013Z,15.53
2019-02-25T08:59:39.543Z,15.00
2019-02-25T09:02:09.937Z,16.00
2019-02-25T09:04:40.321Z,16.60
2019-02-25T09:07:10.712Z,15.20
2019-02-25T09:09:41.078Z,15.85
2019-02-25T09:12:11.476Z,15.63
2019-02-25T09:14:41.849Z,15.20
2019-02-25T09:17:12.283Z,14.47
2019-02-25T09:19:42.754Z,14.70
2019-02-25T09:22:13.144Z,15.70
2019-02-25T09:24:43.523Z,15.63
2019-02-25T09:27:13.943Z,14.83
2019-02-25T09:29:45.041Z,15.90
2019-02-25T09:32:15.492Z,14.85
2019-02-25T09:34:47.220Z,16.40
2019-02-25T09:37:17.662Z,16.02
2019-02-25T09:39:48.012Z,15.10
2019-02-25T09:42:18.437Z,15.25
2019-02-25T09:44:48.827Z,16.67
2019-02-25T09:47:19.217Z,15.85
2019-02-25T09:49:51.100Z,15.05
2019-02-25T09:52:21.555Z,15.32
2019-02-25T09:54:51.925Z,15.90
2019-02-25T09:57:22.317Z,15.50
2019-02-25T09:59:52.680Z,16.37
2019-02-25T10:02:24.769Z,15.80
2019-02-25T10:04:55.324Z,17.17
2019-02-25T10:07:25.804Z,16.52
2019-02-25T10:09:56.245Z,18.80
2019-02-25T10:12:26.628Z,19.10
2019-02-25T10:14:57.006Z,18.98
2019-02-25T10:17:27.389Z,19.92
2019-02-25T10:19:57.759Z,20.17
2019-02-25T10:22:28.144Z,18.37
2019-02-25T10:24:58.641Z,19.35
2019-02-25T10:27:29.035Z,19.67
2019-02-25T10:29:59.432Z,18.92
2019-02-25T10:32:30.244Z,19.67
2019-02-25T10:35:00.674Z,19.90
2019-02-25T10:37:32.310Z,20.23
2019-02-25T10:40:02.688Z,21.17
2019-02-25T10:42:33.966Z,20.77
2019-02-25T10:45:13.490Z,21.68
2019-02-25T10:47:44.729Z,22.15
2019-02-25T10:50:16.138Z,22.45
2019-02-25T10:52:48.943Z,22.27
2019-02-25T10:55:45.063Z,23.40
2019-02-25T10:58:13.573Z,23.25
2019-02-25T11:00:47.857Z,22.75
2019-02-25T11:03:20.022Z,23.30
2019-02-25T11:05:51.753Z,22.37
2019-02-25T11:08:22.665Z,23.05
2019-02-25T11:11:03.404Z,23.40
2019-02-25T11:13:34.668Z,23.62
2019-02-25T11:16:05.919Z,23.73
2019-02-25T11:18:36.578Z,22.73
2019-02-25T11:21:08.882Z,23.18
2019-02-25T11:23:39.108Z,23.25
2019-02-25T11:26:09.461Z,23.55
2019-02-25T11:28:41.252Z,22.85
2019-02-25T11:31:12.314Z,23.65
2019-02-25T11:33:42.699Z,24.90
2019-02-25T11:36:14.907Z,23.77
2019-02-25T11:38:45.147Z,24.52
2019-02-25T11:41:15.522Z,23.00
2019-02-25T11:43:48.103Z,23.87
2019-02-25T11:46:18.002Z,23.50
2019-02-25T11:48:48.462Z,23.77
2019-02-25T11:51:18.826Z,23.30
2019-02-25T11:53:50.196Z,24.87
2019-02-25T11:56:20.600Z,24.23
2019-02-25T11:58:50.996Z,25.65
2019-02-25T12:01:26.693Z,24.95
2019-02-25T13:32:06.880Z,20.45
2019-02-25T13:34:37.341Z,19.60
2019-02-25T13:37:09.452Z,20.65
2019-02-25T13:39:39.811Z,20.48
2019-02-25T13:42:10.189Z,20.20
2019-02-25T13:44:40.573Z,19.95
2019-02-25T13:47:10.951Z,19.73
2019-02-25T13:49:41.581Z,20.45
2019-02-25T13:52:12.212Z,19.60
2019-02-25T13:54:42.594Z,19.10
2019-02-25T13:57:12.987Z,19.32
2019-02-25T13:59:43.360Z,18.65
2019-02-25T14:02:14.728Z,19.20
2019-02-25T14:04:45.482Z,18.45
2019-02-25T14:07:15.978Z,19.17
2019-02-25T14:09:49.366Z,18.12
2019-02-25T14:12:22.801Z,18.50
2019-02-25T14:14:53.222Z,18.35
2019-02-25T14:17:23.598Z,17.90
2019-02-25T14:19:54.355Z,18.50
2019-02-25T14:22:24.790Z,18.23
2019-02-25T14:24:55.168Z,20.05
2019-02-25T14:27:27.156Z,19.30
2019-02-25T14:29:57.782Z,18.05
2019-02-25T14:32:30.017Z,17.87
2019-02-25T14:35:00.420Z,16.82
2019-02-25T14:37:30.900Z,19.37
2019-02-25T14:40:03.582Z,17.40
2019-02-25T14:42:36.349Z,16.35
2019-02-25T14:45:10.668Z,18.25
2019-02-25T14:47:42.088Z,18.40
2019-02-25T14:50:21.636Z,17.48
2019-02-25T14:52:52.433Z,17.80
2019-02-25T14:55:22.817Z,18.23
2019-02-25T14:57:55.072Z,18.52
2019-02-25T15:00:31.861Z,17.40
2019-02-25T15:03:00.954Z,17.45
2019-02-25T15:05:31.340Z,18.15
2019-02-25T15:08:01.890Z,18.07
2019-02-25T15:10:33.945Z,17.05
2019-02-25T15:13:06.088Z,17.80
2019-02-25T15:15:37.092Z,16.82
2019-02-25T15:18:08.833Z,17.57
2019-02-25T15:20:39.390Z,16.48
2019-02-25T15:23:12.461Z,16.85
2019-02-25T15:25:43.203Z,17.98
2019-02-25T15:28:16.001Z,18.30
2019-02-25T15:30:46.429Z,16.93
2019-02-25T15:33:16.803Z,17.25
2019-02-25T15:35:47.273Z,15.58
2019-02-25T15:38:17.646Z,17.25
2019-02-25T15:40:48.104Z,16.32
2019-02-25T15:43:20.739Z,16.20
2019-02-25T15:45:50.865Z,16.90
2019-02-25T15:48:22.793Z,16.67
2019-02-25T15:51:12.711Z,16.52
2019-02-25T15:53:46.237Z,16.15
2019-02-25T15:56:15.606Z,17.00
2019-02-25T15:58:47.282Z,15.50
2019-02-25T16:01:18.852Z,16.35
2019-02-25T16:03:49.223Z,16.10
2019-02-25T16:06:20.152Z,15.60
2019-02-25T16:08:54.322Z,16.17
2019-02-25T16:11:25.615Z,15.70
2019-02-25T16:13:57.920Z,15.58
2019-02-25T16:16:29.309Z,16.42
2019-02-25T16:18:59.674Z,15.08
2019-02-25T16:21:30.890Z,15.45
2019-02-25T16:24:02.039Z,15.88
2019-02-25T16:26:34.277Z,15.70
2019-02-25T16:29:07.253Z,15.63
2019-02-25T16:31:37.875Z,14.90
2019-02-25T16:34:09.871Z,15.23
2019-02-25T16:36:40.746Z,19.32
2019-02-25T16:39:11.400Z,22.52
2019-02-25T16:41:43.552Z,18.30
2019-02-25T16:44:15.002Z,17.48
2019-02-25T16:46:46.729Z,19.25
2019-02-25T16:49:17.431Z,17.02
2019-02-25T16:51:47.866Z,17.27
2019-02-25T16:54:20.604Z,16.50
2019-02-25T16:56:50.427Z,16.12
2019-02-25T16:59:23.023Z,15.88
2019-02-25T17:01:55.869Z,15.80
2019-02-25T17:04:27.750Z,15.88
2019-02-25T17:07:00.149Z,15.08
2019-02-25T17:09:33.745Z,15.50
2019-02-25T17:12:05.115Z,14.43
2019-02-25T17:14:40.064Z,15.05
2019-02-25T17:17:08.392Z,14.80
2019-02-25T17:19:38.766Z,15.25
2019-02-25T17:22:09.130Z,15.63
2019-02-25T17:24:39.487Z,15.60
2019-02-25T17:27:11.849Z,15.18
2019-02-25T17:29:42.079Z,15.20
2019-02-25T17:32:14.452Z,15.23
2019-02-25T17:34:44.667Z,14.85
2019-02-25T17:37:16.662Z,15.08
2019-02-25T17:39:47.133Z,15.25
2019-02-25T17:42:20.168Z,16.35
2019-02-25T17:44:53.454Z,15.50
2019-02-25T17:47:24.503Z,15.75
2019-02-25T17:49:56.070Z,15.32
2019-02-25T17:52:27.137Z,14.98
2019-02-25T17:54:57.497Z,15.28
2019-02-25T17:57:29.472Z,16.10
2019-02-25T18:00:00.226Z,15.95
2019-02-25T18:02:33.380Z,16.45
2019-02-25T18:05:04.065Z,15.68
2019-02-25T18:07:35.872Z,16.00
2019-02-25T18:10:12.650Z,16.65
2019-02-25T18:12:43.215Z,18.82
2019-02-25T18:15:30.628Z,17.80
2019-02-25T18:18:07.354Z,17.62
2019-02-25T18:20:38.921Z,16.87
2019-02-25T18:23:09.633Z,17.37
2019-02-25T18:25:40.262Z,17.17
2019-02-25T18:28:12.670Z,19.05
2019-02-25T18:30:43.364Z,17.92
2019-02-25T18:33:17.395Z,18.50
2019-02-25T18:35:48.307Z,18.07
2019-02-25T18:38:18.831Z,19.05
2019-02-25T18:40:49.358Z,17.30
2019-02-25T18:43:22.143Z,18.02
2019-02-25T18:45:52.991Z,18.60
2019-02-25T18:48:24.906Z,18.65
2019-02-25T18:50:57.928Z,20.27
2019-02-25T18:53:27.924Z,21.02
2019-02-25T18:55:58.352Z,21.12
2019-02-25T18:58:28.717Z,28.10
2019-02-25T19:00:59.074Z,27.55
2019-02-25T19:03:31.232Z,22.50
2019-02-25T19:06:01.745Z,21.73
2019-02-25T19:08:32.212Z,18.98
2019-02-25T19:11:02.735Z,19.42
2019-02-25T19:13:33.104Z,18.92
2019-02-25T19:16:03.530Z,18.77
2019-02-25T19:18:34.696Z,19.05
2019-02-25T19:21:06.634Z,18.02
2019-02-25T19:23:39.484Z,23.98
2019-02-25T19:26:12.405Z,24.25
2019-02-25T19:28:45.933Z,22.25
2019-02-25T19:31:14.564Z,20.43
2019-02-25T19:33:45.101Z,19.37
2019-02-25T19:36:15.466Z,19.98
2019-02-25T19:38:48.059Z,18.10
2019-02-25T19:41:20.034Z,18.50
2019-02-25T19:43:58.961Z,18.65
2019-02-25T19:46:22.554Z,18.42
2019-02-25T19:48:54.167Z,18.32
2019-02-25T19:51:25.821Z,18.20
2019-02-25T19:53:57.231Z,19.00
2019-02-25T19:56:27.595Z,17.75
2019-02-25T19:58:58.078Z,23.67
2019-02-25T20:01:29.401Z,20.52
2019-02-25T20:04:04.344Z,19.32
2019-02-25T20:06:31.846Z,17.85
2019-02-25T20:09:02.225Z,17.85
2019-02-25T20:11:34.205Z,19.23
2019-02-25T20:14:04.911Z,24.75
2019-02-25T20:16:35.283Z,28.62
2019-02-25T20:19:06.845Z,23.45
2019-02-25T20:21:37.270Z,20.25
2019-02-25T20:24:10.264Z,20.40
2019-02-25T20:26:39.724Z,20.08
2019-02-25T20:29:11.091Z,18.77
2019-02-25T20:31:43.423Z,18.77
2019-02-25T20:34:16.495Z,19.98
2019-02-25T20:36:47.976Z,19.65
2019-02-25T20:39:19.083Z,22.25
2019-02-25T20:41:50.724Z,24.02
2019-02-25T20:44:22.250Z,22.95
2019-02-25T20:46:54.994Z,19.92
2019-02-25T20:49:29.534Z,20.52
2019-02-25T20:52:01.031Z,20.12
2019-02-25T20:54:29.907Z,19.20
2019-02-25T20:57:00.571Z,20.70
2019-02-25T20:59:32.550Z,20.45
2019-02-25T21:02:04.801Z,20.00
2019-02-25T21:04:36.741Z,19.75
2019-02-25T21:07:08.852Z,19.95
2019-02-25T21:09:40.518Z,18.35
2019-02-25T21:12:13.218Z,19.82
2019-02-25T21:14:44.976Z,20.17
2019-02-25T21:17:15.584Z,20.05
2019-02-25T21:19:45.995Z,19.85
2019-02-25T21:22:16.394Z,20.12
2019-02-25T21:24:46.818Z,18.65
2019-02-25T21:27:17.208Z,18.90
2019-02-25T21:29:47.698Z,18.60
2019-02-25T21:32:19.972Z,20.08
2019-02-25T21:34:52.752Z,18.17
2019-02-25T21:37:23.405Z,18.48
2019-02-25T21:39:56.100Z,19.70
2019-02-25T21:42:26.866Z,18.98
2019-02-25T21:44:59.477Z,19.75
2019-02-25T21:47:30.905Z,22.17
2019-02-25T21:50:03.869Z,22.35
2019-02-25T21:52:35.042Z,21.20
2019-02-25T21:55:11.498Z,20.85
2019-02-25T21:58:04.724Z,21.17
2019-02-25T22:00:38.615Z,21.70
2019-02-25T22:03:10.887Z,30.10
2019-02-25T22:05:42.485Z,30.15
2019-02-25T22:08:12.918Z,23.95
2019-02-25T22:10:44.138Z,21.00
2019-02-25T22:13:17.802Z,20.60
2019-02-25T22:15:47.896Z,20.25
2019-02-25T22:18:18.336Z,20.50
2019-02-25T22:20:51.764Z,20.72
2019-02-25T22:23:25.826Z,19.70
2019-02-25T22:25:54.516Z,19.65
2019-02-25T22:28:24.931Z,21.02
2019-02-25T22:30:58.108Z,21.57
2019-02-25T22:33:30.400Z,20.43
2019-02-25T22:36:00.816Z,20.85
2019-02-25T22:38:31.913Z,21.07
2019-02-25T22:41:16.197Z,20.57
2019-02-25T22:43:48.208Z,21.33
2019-02-25T22:46:19.164Z,21.12
2019-02-25T22:48:49.712Z,20.57
2019-02-25T22:51:22.285Z,20.50
2019-02-25T22:53:54.115Z,21.87
2019-02-25T22:56:28.080Z,21.07
2019-02-25T22:59:00.400Z,21.15
2019-02-25T23:01:31.481Z,20.68
2019-02-25T23:04:02.202Z,20.00
2019-02-25T23:06:32.590Z,20.00
2019-02-25T23:09:02.993Z,20.10
2019-02-25T23:11:35.087Z,20.75
2019-02-25T23:14:07.713Z,19.17
2019-02-25T23:16:39.424Z,19.27
2019-02-25T23:19:11.996Z,20.70
2019-02-25T23:21:42.192Z,20.90
2019-02-25T23:24:12.566Z,20.45
2019-02-25T23:26:43.243Z,21.10
2019-02-25T23:29:15.072Z,20.65
2019-02-25T23:31:46.454Z,20.80
2019-02-25T23:34:17.990Z,21.00
2019-02-25T23:36:49.784Z,20.72
2019-02-25T23:39:21.119Z,19.95
2019-02-25T23:41:51.500Z,19.95
2019-02-25T23:44:22.827Z,20.72
2019-02-25T23:46:57.687Z,19.62
2019-02-25T23:49:27.616Z,20.95
2019-02-25T23:51:58.058Z,20.37
2019-02-25T23:54:28.440Z,20.45
2019-02-25T23:57:00.144Z,20.55
2019-02-25T23:59:32.626Z,21.00
